Time;durP1;ratioP1;P1;durP2;ratioP2;P2;SDS_P1;SDS_P2;PMS_P1;PMS_P2;Temp;Humidity;BMP_temperature;BMP_pressure;BME280_temperature;BME280_humidity;BME280_pressure;Samples;Min_cycle;Max_cycle;Signal;HPM_P1;HPM_P2
2022/01/07 00:02:31;;;;;;;;;;;;;;;6.56;53.12;101250.94;5077424;28;19916;-78
2022/01/07 00:05:16;;;;;;;;;;;;;;;6.56;51.87;101250.94;5074929;28;19912;-77
2022/01/07 00:08:00;;;;;;;;;;;;;;;6.49;51.45;101250.44;5073789;28;20377;-77
2022/01/07 00:10:45;;;;;;;;;;;;;;;6.37;52.25;101249.94;5077380;28;20301;-78
2022/01/07 00:13:30;;;;;;;;;;;;;;;6.37;52.10;101248.03;5074958;28;19920;-78
2022/01/07 00:16:16;;;;;;;;;;;;;;;6.34;52.59;101242.38;5073409;28;19916;-79
2022/01/07 00:19:00;;;;;;;;;;;;;;;6.25;51.13;101250.22;5076457;28;20369;-78
2022/01/07 00:21:45;;;;;;;;;;;;;;;6.13;52.12;101251.59;5075411;28;19912;-78
2022/01/07 00:24:29;;;;;;;;;;;;;;;6.22;52.26;101250.78;5073056;28;19912;-78
2022/01/07 00:27:14;;;;;;;;;;;;;;;6.33;54.56;101251.56;5076217;28;19912;-79
2022/01/07 00:29:59;;;;;;;;;;;;;;;6.13;50.74;101254.31;5075959;28;19912;-79
2022/01/07 00:32:44;;;;;;;;;;;;;;;6.32;50.45;101253.44;5073742;28;20368;-78
2022/01/07 00:35:28;;;;;;;;;;;;;;;6.22;51.10;101261.56;5077313;28;20332;-79
2022/01/07 00:38:13;;;;;;;;;;;;;;;6.17;51.46;101258.88;5073418;28;19916;-78
2022/01/07 00:40:57;;;;;;;;;;;;;;;6.35;50.36;101263.69;5074559;28;19912;-79
2022/01/07 00:43:42;;;;;;;;;;;;;;;6.24;49.63;101269.41;5077389;28;19912;-78
2022/01/07 00:46:26;;;;;;;;;;;;;;;6.29;48.32;101272.09;5076087;28;20378;-77
2022/01/07 00:49:12;;;;;;;;;;;;;;;6.27;50.64;101272.38;5074359;28;19913;-79
2022/01/07 00:51:59;;;;;;;;;;;;;;;6.31;52.24;101269.91;5078326;28;19916;-78
2022/01/07 00:54:43;;;;;;;;;;;;;;;6.23;49.65;101274.00;5075084;28;19920;-80
2022/01/07 00:57:28;;;;;;;;;;;;;;;6.12;49.64;101283.19;5074068;28;19912;-79
2022/01/07 01:00:13;;;;;;;;;;;;;;;5.93;50.01;101280.25;5078283;28;20377;-79
2022/01/07 01:02:59;;;;;;;;;;;;;;;5.87;50.10;101275.91;5072782;28;19912;-78
2022/01/07 01:05:45;;;;;;;;;;;;;;;6.08;49.58;101279.41;5073018;28;19916;-78
2022/01/07 01:08:29;;;;;;;;;;;;;;;6.03;48.38;101279.41;5078086;28;19916;-78
2022/01/07 01:11:14;;;;;;;;;;;;;;;6.09;48.20;101282.94;5075947;28;19916;-78
2022/01/07 01:13:58;;;;;;;;;;;;;;;5.84;48.91;101281.03;5073242;28;19916;-77
2022/01/07 01:16:44;;;;;;;;;;;;;;;6.04;48.37;101280.22;5072129;28;19912;-77
2022/01/07 01:19:28;;;;;;;;;;;;;;;6.04;47.85;101282.94;5076028;28;19913;-78
2022/01/07 01:22:13;;;;;;;;;;;;;;;6.04;48.12;101280.22;5074331;28;19912;-78
2022/01/07 01:24:57;;;;;;;;;;;;;;;5.91;48.95;101281.56;5071608;28;19913;-78
2022/01/07 01:27:42;;;;;;;;;;;;;;;6.05;49.63;101288.03;5073788;28;19931;-79
2022/01/07 01:30:28;;;;;;;;;;;;;;;6.09;49.66;101291.84;5074600;28;19912;-78
2022/01/07 01:33:12;;;;;;;;;;;;;;;5.97;49.43;101296.69;5072064;28;19912;-78
2022/01/07 01:35:57;;;;;;;;;;;;;;;6.01;50.93;101295.06;5076371;28;19921;-78
2022/01/07 01:38:42;;;;;;;;;;;;;;;6.11;51.83;101302.34;5074353;28;19912;-77
2022/01/07 01:41:27;;;;;;;;;;;;;;;5.89;50.51;101300.72;5072590;28;19912;-78
2022/01/07 01:44:11;;;;;;;;;;;;;;;5.88;51.32;101301.81;5076204;28;19912;-79
2022/01/07 01:46:56;;;;;;;;;;;;;;;5.96;50.60;101305.88;5074632;28;20289;-78
2022/01/07 01:49:41;;;;;;;;;;;;;;;5.82;49.98;101304.75;5073030;28;19912;-78
2022/01/07 01:52:26;;;;;;;;;;;;;;;5.79;51.09;101306.09;5076933;28;20388;-79
2022/01/07 01:55:10;;;;;;;;;;;;;;;5.68;49.72;101304.47;5074301;28;19917;-78
2022/01/07 01:57:55;;;;;;;;;;;;;;;5.63;49.56;101296.38;5073037;28;19912;-78
2022/01/07 02:00:40;;;;;;;;;;;;;;;5.58;51.07;101294.50;5061727;28;19912;-79
2022/01/07 02:03:24;;;;;;;;;;;;;;;5.60;50.27;101297.72;5074467;28;20292;-78
2022/01/07 02:06:09;;;;;;;;;;;;;;;5.49;49.72;101300.66;5073695;28;19913;-79
2022/01/07 02:08:54;;;;;;;;;;;;;;;5.62;49.11;101289.34;5077814;28;19908;-78
2022/01/07 02:11:38;;;;;;;;;;;;;;;5.72;49.43;101297.47;5075252;28;19912;-78
2022/01/07 02:14:23;;;;;;;;;;;;;;;5.72;50.11;101289.38;5072479;28;20408;-78
2022/01/07 02:17:08;;;;;;;;;;;;;;;5.52;51.86;101284.75;5071560;28;19916;-78
2022/01/07 02:19:53;;;;;;;;;;;;;;;5.75;49.63;101285.31;5075424;28;19912;-78
2022/01/07 02:22:38;;;;;;;;;;;;;;;5.74;50.91;101292.59;5072439;28;19916;-78
2022/01/07 02:25:23;;;;;;;;;;;;;;;5.65;50.73;101282.59;5063053;28;19950;-78
2022/01/07 02:28:08;;;;;;;;;;;;;;;5.62;49.03;101281.25;5071614;28;19912;-78
2022/01/07 02:30:53;;;;;;;;;;;;;;;5.61;49.23;101285.03;5073557;28;20284;-78
2022/01/07 02:33:37;;;;;;;;;;;;;;;5.79;49.46;101273.69;5071102;28;19920;-78
2022/01/07 02:36:22;;;;;;;;;;;;;;;5.66;50.00;101274.25;5074892;28;20381;-77
2022/01/07 02:39:06;;;;;;;;;;;;;;;5.80;49.56;101285.31;5073745;28;19916;-78
2022/01/07 02:41:50;;;;;;;;;;;;;;;5.59;49.65;101273.69;5073327;28;19912;-78
2022/01/07 02:44:35;;;;;;;;;;;;;;;5.41;49.74;101272.34;5079459;28;19913;-78
2022/01/07 02:47:21;;;;;;;;;;;;;;;5.61;53.19;101276.94;5077844;28;20300;-78
2022/01/07 02:50:06;;;;;;;;;;;;;;;5.58;50.24;101269.41;5076604;28;19912;-79
2022/01/07 02:52:52;;;;;;;;;;;;;;;5.54;50.41;101268.28;5080064;28;20369;-77
2022/01/07 02:55:37;;;;;;;;;;;;;;;5.62;50.24;101269.66;5077173;28;20361;-77
2022/01/07 02:58:21;;;;;;;;;;;;;;;5.33;50.24;101277.44;5075988;28;20304;-79
2022/01/07 03:01:07;;;;;;;;;;;;;;;5.25;51.38;101267.16;5079840;28;19912;-78
2022/01/07 03:03:52;;;;;;;;;;;;;;;5.41;53.63;101271.50;5077487;28;19912;-78
2022/01/07 03:06:36;;;;;;;;;;;;;;;5.41;51.07;101271.50;5076087;28;19916;-79
2022/01/07 03:09:22;;;;;;;;;;;;;;;5.32;51.53;101271.25;5079894;28;19912;-79
2022/01/07 03:12:06;;;;;;;;;;;;;;;5.26;51.90;101268.78;5078567;28;19912;-79
2022/01/07 03:14:51;;;;;;;;;;;;;;;5.39;51.34;101271.78;5075875;28;19916;-79
2022/01/07 03:17:37;;;;;;;;;;;;;;;5.45;51.92;101275.28;5076679;28;19912;-79
2022/01/07 03:20:23;;;;;;;;;;;;;;;5.46;51.50;101271.53;5078578;28;19912;-78
2022/01/07 03:23:09;;;;;;;;;;;;;;;5.41;51.63;101279.59;5076074;28;19912;-78
2022/01/07 03:25:54;;;;;;;;;;;;;;;5.51;52.22;101266.13;5080049;28;19912;-77
2022/01/07 03:28:43;;;;;;;;;;;;;;;5.32;51.73;101279.31;5078488;28;19912;-78
2022/01/07 03:31:28;;;;;;;;;;;;;;;5.38;50.61;101282.84;5076146;28;20389;-79
2022/01/07 03:34:12;;;;;;;;;;;;;;;5.23;51.33;101274.72;5073448;28;19916;-79
2022/01/07 03:36:56;;;;;;;;;;;;;;;5.41;50.96;101276.91;5076519;28;19912;-78
2022/01/07 03:39:41;;;;;;;;;;;;;;;5.23;51.20;101280.94;5076582;28;19913;-79
2022/01/07 03:42:25;;;;;;;;;;;;;;;5.23;50.90;101282.81;5074161;28;19913;-78
2022/01/07 03:45:10;;;;;;;;;;;;;;;5.20;49.81;101281.44;5077542;28;19912;-77
2022/01/07 03:47:55;;;;;;;;;;;;;;;5.07;50.53;101285.47;5075087;28;20380;-77
2022/01/07 03:50:40;;;;;;;;;;;;;;;5.20;49.97;101286.03;5075459;28;19912;-80
2022/01/07 03:53:25;;;;;;;;;;;;;;;5.23;50.71;101288.19;5079430;28;19916;-77
2022/01/07 03:56:11;;;;;;;;;;;;;;;5.23;51.37;101288.19;5076609;28;19916;-75
2022/01/07 03:58:55;;;;;;;;;;;;;;;5.35;50.62;101284.19;5074831;28;19938;-75
2022/01/07 04:01:40;;;;;;;;;;;;;;;5.34;49.13;101276.34;5078435;28;19912;-76
2022/01/07 04:04:24;;;;;;;;;;;;;;;5.34;51.55;101276.34;5075916;28;20344;-76
2022/01/07 04:07:09;;;;;;;;;;;;;;;5.09;49.83;101277.91;5073119;28;19912;-75
2022/01/07 04:09:54;;;;;;;;;;;;;;;5.16;50.93;101283.06;5078282;28;19916;-75
2022/01/07 04:12:38;;;;;;;;;;;;;;;5.12;52.42;101281.97;5071529;28;19920;-76
2022/01/07 04:15:23;;;;;;;;;;;;;;;5.11;53.76;101286.53;5070790;28;19916;-75
2022/01/07 04:18:07;;;;;;;;;;;;;;;5.10;53.04;101281.41;5071962;28;19912;-75
2022/01/07 04:20:52;;;;;;;;;;;;;;;5.27;52.57;101283.91;5076123;28;19912;-75
2022/01/07 04:23:37;;;;;;;;;;;;;;;5.40;52.32;101281.50;5073201;28;19912;-75
2022/01/07 04:26:21;;;;;;;;;;;;;;;5.12;53.60;101276.56;5078293;28;20288;-75
2022/01/07 04:29:06;;;;;;;;;;;;;;;5.33;51.78;101283.66;5076190;28;19913;-75
2022/01/07 04:31:50;;;;;;;;;;;;;;;5.30;51.11;101286.03;5074521;28;19912;-75
2022/01/07 04:34:34;;;;;;;;;;;;;;;5.30;50.70;101292.25;5071881;28;19920;-75
2022/01/07 04:37:19;;;;;;;;;;;;;;;5.30;51.45;101280.66;5073388;28;20372;-75
2022/01/07 04:40:04;;;;;;;;;;;;;;;5.36;51.49;101285.00;5075202;28;19913;-75
2022/01/07 04:42:49;;;;;;;;;;;;;;;5.03;51.01;101292.44;5072748;28;19912;-76
2022/01/07 04:45:33;;;;;;;;;;;;;;;5.05;51.70;101290.28;5076743;28;19912;-76
2022/01/07 04:48:18;;;;;;;;;;;;;;;5.02;52.16;101290.84;5072845;28;19912;-75
2022/01/07 04:51:02;;;;;;;;;;;;;;;4.97;53.46;101290.81;5072867;28;19913;-75
2022/01/07 04:53:47;;;;;;;;;;;;;;;5.09;51.42;101291.38;5076999;28;19912;-75
2022/01/07 04:56:31;;;;;;;;;;;;;;;4.93;50.67;101288.88;5075539;28;19921;-75
2022/01/07 04:59:15;;;;;;;;;;;;;;;4.99;52.94;101299.44;5073553;28;19912;-76
2022/01/07 05:02:00;;;;;;;;;;;;;;;5.22;53.32;101298.19;5077290;28;19912;-75
2022/01/07 05:04:45;;;;;;;;;;;;;;;4.94;53.12;101294.00;5074454;28;19916;-75
2022/01/07 05:07:29;;;;;;;;;;;;;;;4.87;53.96;101289.97;5073465;28;19912;-75
2022/01/07 05:10:15;;;;;;;;;;;;;;;4.73;54.07;101289.59;5076358;28;19912;-76
2022/01/07 05:12:59;;;;;;;;;;;;;;;4.83;54.24;101286.16;5071739;28;19913;-75
2022/01/07 05:15:43;;;;;;;;;;;;;;;4.86;55.17;101289.16;5088730;28;19916;-75
2022/01/07 05:18:28;;;;;;;;;;;;;;;4.79;57.30;101287.75;5097756;28;19911;-75
2022/01/07 05:21:12;;;;;;;;;;;;;;;4.81;55.91;101286.44;5092648;28;19912;-76
2022/01/07 05:23:56;;;;;;;;;;;;;;;4.47;54.75;101285.19;5093748;28;19912;-75
2022/01/07 05:26:41;;;;;;;;;;;;;;;4.32;54.42;101285.88;5092514;28;19912;-75
2022/01/07 05:29:26;;;;;;;;;;;;;;;4.35;54.73;101284.56;5096745;28;20288;-75
2022/01/07 05:32:11;;;;;;;;;;;;;;;4.40;55.98;101271.13;5091757;28;19939;-76
2022/01/07 05:34:55;;;;;;;;;;;;;;;4.45;55.22;101279.22;5094416;28;19923;-75
2022/01/07 05:37:39;;;;;;;;;;;;;;;4.36;54.56;101283.50;5092282;28;20368;-74
2022/01/07 05:40:24;;;;;;;;;;;;;;;4.27;55.43;101278.56;5094767;28;20304;-75
2022/01/07 05:43:08;;;;;;;;;;;;;;;4.26;56.59;101278.84;5092180;28;19912;-75
2022/01/07 05:45:52;;;;;;;;;;;;;;;4.42;55.55;101283.25;5096601;28;19912;-75
2022/01/07 05:48:37;;;;;;;;;;;;;;;4.52;59.03;101290.59;5094688;28;19912;-75
2022/01/07 05:51:22;;;;;;;;;;;;;;;4.48;58.31;101284.09;5092389;28;19916;-75
2022/01/07 05:54:06;;;;;;;;;;;;;;;4.47;57.78;101287.88;5096637;28;19912;-75
2022/01/07 05:56:50;;;;;;;;;;;;;;;4.29;56.60;101284.53;5095026;28;19916;-75
2022/01/07 05:59:35;;;;;;;;;;;;;;;4.46;58.03;101297.84;5093152;28;20292;-75
2022/01/07 06:02:19;;;;;;;;;;;;;;;4.67;58.22;101301.44;5096715;28;19912;-75
2022/01/07 06:05:04;;;;;;;;;;;;;;;4.60;56.83;101287.41;5095104;28;20078;-76
2022/01/07 06:07:49;;;;;;;;;;;;;;;4.64;56.60;101296.56;5093053;28;19912;-75
2022/01/07 06:10:33;;;;;;;;;;;;;;;4.49;56.56;101301.88;5097063;28;19912;-75
2022/01/07 06:13:17;;;;;;;;;;;;;;;3.96;56.85;101313.63;5094833;28;19912;-75
2022/01/07 06:16:02;;;;;;;;;;;;;;;3.97;58.09;101305.25;5093535;28;19916;-75
2022/01/07 06:19:20;;;;;;;;;;;;;;;4.10;58.33;101314.81;5101398;28;19912;-75
2022/01/07 06:21:58;;;;;;;;;;;;;;;3.86;55.85;101314.31;5099284;28;19916;-75
2022/01/07 06:24:42;;;;;;;;;;;;;;;4.11;57.54;101311.03;5096284;28;19912;-75
2022/01/07 06:27:26;;;;;;;;;;;;;;;3.98;55.70;101317.66;5098338;28;19912;-76
2022/01/07 06:30:11;;;;;;;;;;;;;;;4.17;57.08;101316.19;5099115;28;20390;-75
2022/01/07 06:32:55;;;;;;;;;;;;;;;4.15;55.15;101315.66;5096471;28;19916;-75
2022/01/07 06:35:39;;;;;;;;;;;;;;;3.87;56.00;101315.94;5100349;28;19916;-76
2022/01/07 06:38:24;;;;;;;;;;;;;;;3.86;57.36;101314.31;5097488;28;19919;-75
2022/01/07 06:41:08;;;;;;;;;;;;;;;4.08;57.76;101323.13;5095452;28;19912;-75
2022/01/07 06:43:52;;;;;;;;;;;;;;;4.13;57.70;101316.97;5099140;28;19911;-75
2022/01/07 06:46:37;;;;;;;;;;;;;;;3.98;58.24;101314.97;5097617;28;19912;-75
2022/01/07 06:49:21;;;;;;;;;;;;;;;4.10;57.02;101323.69;5095994;28;19916;-76
2022/01/07 06:52:06;;;;;;;;;;;;;;;2.64;58.90;101319.41;5094720;28;19912;-75
2022/01/07 06:54:50;;;;;;;;;;;;;;;1.46;62.78;101326.63;5085019;28;19921;-75
2022/01/07 06:57:35;;;;;;;;;;;;;;;1.12;66.20;101325.66;5069698;28;20303;-76
2022/01/07 07:00:19;;;;;;;;;;;;;;;0.92;65.76;101329.78;5070631;28;19913;-76
2022/01/07 07:03:04;;;;;;;;;;;;;;;0.89;65.92;101335.63;5088966;28;19924;-76
2022/01/07 07:05:48;;;;;;;;;;;;;;;0.84;65.67;101329.13;5095981;28;20288;-76
2022/01/07 07:08:32;;;;;;;;;;;;;;;0.97;64.92;101333.41;5080865;28;19916;-76
2022/01/07 07:11:17;;;;;;;;;;;;;;;0.85;66.07;101333.44;5098348;28;20388;-76
2022/01/07 07:14:01;;;;;;;;;;;;;;;1.19;64.78;101336.25;5096182;28;19912;-76
2022/01/07 07:16:46;;;;;;;;;;;;;;;1.41;64.04;101333.75;5094212;28;19915;-76
2022/01/07 07:19:31;;;;;;;;;;;;;;;1.53;62.98;101337.97;5098095;28;19912;-76
2022/01/07 07:22:16;;;;;;;;;;;;;;;1.58;62.49;101343.44;5096847;28;19912;-76
2022/01/07 07:25:01;;;;;;;;;;;;;;;1.53;63.12;101343.34;5094431;28;19912;-76
2022/01/07 07:27:45;;;;;;;;;;;;;;;1.47;63.26;101341.66;5094644;28;20383;-76
2022/01/07 07:30:35;;;;;;;;;;;;;;;1.44;63.75;101335.94;5096811;28;19912;-76
2022/01/07 07:36:27;;;;;;;;;;;;;;;1.37;64.30;101343.31;5042940;28;1278221;-76
2022/01/07 07:39:12;;;;;;;;;;;;;;;1.19;66.08;101350.47;5087024;28;19912;-76
2022/01/07 07:41:57;;;;;;;;;;;;;;;1.25;66.58;101346.03;5085435;28;20388;-77
2022/01/07 07:44:46;;;;;;;;;;;;;;;1.44;66.13;101342.09;5077560;28;19912;-76
2022/01/07 07:47:33;;;;;;;;;;;;;;;1.44;65.45;101352.81;5088669;28;19916;-77
2022/01/07 07:50:17;;;;;;;;;;;;;;;1.58;65.75;101343.44;5084760;28;19912;-75
2022/01/07 07:53:02;;;;;;;;;;;;;;;1.82;64.75;101343.34;5089358;28;19916;-76
2022/01/07 07:55:51;;;;;;;;;;;;;;;1.94;66.00;101344.88;5096304;28;20373;-75
2022/01/07 07:58:35;;;;;;;;;;;;;;;2.14;64.64;101341.72;5088615;28;20307;-77
2022/01/07 08:01:21;;;;;;;;;;;;;;;2.25;64.70;101353.44;5070739;28;20369;-76
2022/01/07 08:04:07;;;;;;;;;;;;;;;2.17;64.51;101349.28;5075592;28;19916;-75
2022/01/07 08:06:52;;;;;;;;;;;;;;;2.29;64.52;101344.63;5074033;28;19912;-75
2022/01/07 08:09:39;;;;;;;;;;;;;;;2.55;62.08;101338.59;5077726;28;19912;-76
2022/01/07 08:12:39;;;;;;;;;;;;;;;2.70;61.42;101337.19;5094763;28;20381;-75
2022/01/07 08:18:35;;;;;;;10.40;5.32;;;;;;;2.87;60.92;101332.59;5096720;28;20051;-75
2022/01/07 08:21:24;;;;;;;10.77;5.28;;;;;;;2.97;59.91;101328.16;5088270;28;20035;-75
2022/01/07 08:24:10;;;;;;;12.43;5.88;;;;;;;2.96;60.20;101331.09;5095904;28;20047;-75
2022/01/07 08:26:55;;;;;;;21.63;6.80;;;;;;;3.15;60.62;101337.00;5095342;28;20433;-76
2022/01/07 08:29:42;;;;;;;17.65;5.60;;;;;;;3.04;61.90;101332.53;5081855;28;20058;-75
2022/01/07 08:35:30;;;;;;;17.80;6.18;;;;;;;3.01;62.33;101336.53;5094447;28;20047;-75
2022/01/07 08:38:15;;;;;;;8.73;4.63;;;;;;;3.06;63.09;101336.59;5092359;28;20075;-75
2022/01/07 08:41:00;;;;;;;8.57;4.35;;;;;;;3.07;63.64;101332.84;5096361;28;20162;-75
2022/01/07 08:43:45;;;;;;;8.57;4.93;;;;;;;2.99;63.27;101335.97;5088919;28;20404;-75
2022/01/07 08:46:30;;;;;;;9.40;4.75;;;;;;;2.85;62.38;101332.00;5072877;28;20044;-75
2022/01/07 08:49:14;;;;;;;;;;;;;;;3.03;61.58;101329.03;5077034;28;20048;-76
2022/01/07 08:51:59;;;;;;;13.20;5.28;;;;;;;3.35;59.30;101338.00;5074605;28;19920;-75
2022/01/07 08:54:44;;;;;;;8.10;3.72;;;;;;;3.89;57.55;101335.34;5072101;28;20043;-75
2022/01/07 08:57:28;;;;;;;4.45;2.65;;;;;;;4.59;54.47;101335.06;5074540;28;20130;-76
2022/01/07 09:00:15;;;;;;;10.87;3.70;;;;;;;5.00;54.23;101336.09;5074976;28;20058;-75
2022/01/07 09:03:00;;;;;;;8.73;4.50;;;;;;;5.02;54.09;101331.25;5072407;28;20646;-75
2022/01/07 09:05:45;;;;;;;;;;;;;;;4.88;54.25;101340.88;5093717;28;20062;-75
2022/01/07 09:08:31;;;;;;;11.13;5.70;;;;;;;4.94;53.86;101330.94;5080584;28;19912;-75
2022/01/07 09:11:16;;;;;;;14.45;4.82;;;;;;;5.08;54.50;101330.19;5083774;28;20051;-76
2022/01/07 09:14:00;;;;;;;10.63;4.82;;;;;;;5.34;53.44;101341.06;5095979;28;20042;-76
2022/01/07 09:16:45;;;;;;;11.73;4.97;;;;;;;5.38;54.80;101337.59;5068714;28;20242;-75
2022/01/07 09:19:30;;;;;;;21.55;7.07;;;;;;;5.50;53.98;101343.53;5082097;28;20439;-76
2022/01/07 09:22:15;;;;;;;11.43;5.23;;;;;;;5.73;54.39;101339.56;5088322;28;20051;-76
2022/01/07 09:24:59;;;;;;;10.13;5.17;;;;;;;5.84;53.30;101341.16;5091579;28;20067;-77
2022/01/07 09:27:44;;;;;;;13.52;8.13;;;;;;;6.04;53.76;101342.31;5085125;28;20039;-76
2022/01/07 09:30:29;;;;;;;14.65;5.47;;;;;;;6.06;54.53;101351.75;5097589;28;20054;-76
2022/01/07 09:33:13;;;;;;;11.50;6.67;;;;;;;6.09;54.49;101351.22;5095324;28;20071;-77
2022/01/07 09:35:58;;;;;;;15.57;5.28;;;;;;;6.08;53.90;101351.50;5093554;28;20293;-76
2022/01/07 09:38:43;;;;;;;10.50;5.20;;;;;;;6.35;52.83;101352.00;5091810;28;20055;-76
2022/01/07 09:41:28;;;;;;;11.57;6.15;;;;;;;6.65;51.27;101352.00;5095648;28;20059;-76
2022/01/07 09:44:14;;;;;;;13.65;6.10;;;;;;;6.65;51.91;101343.09;5093604;28;20050;-76
2022/01/07 09:46:59;;;;;;;8.55;4.60;;;;;;;6.76;51.01;101345.47;5063042;28;20059;-76
2022/01/07 09:49:44;;;;;;;9.15;5.40;;;;;;;6.93;49.39;101337.06;5069516;28;20056;-75
2022/01/07 09:52:28;;;;;;;16.67;7.00;;;;;;;7.04;50.33;101327.00;5068542;28;20047;-76
2022/01/07 09:55:13;;;;;;;15.20;6.83;;;;;;;7.22;48.99;101324.50;5082197;28;20539;-76
2022/01/07 09:57:59;;;;;;;9.88;5.03;;;;;;;7.26;48.51;101322.06;5074575;28;20650;-76
2022/01/07 10:00:45;;;;;;;13.88;7.15;;;;;;;7.34;47.56;101316.06;5081740;28;20048;-77
2022/01/07 10:03:41;;;;;;;12.00;6.88;;;;;;;7.68;46.15;101314.22;5075499;28;20527;-75
2022/01/07 10:06:27;;;;;;;19.15;8.65;;;;;;;7.42;47.37;101312.75;5055063;28;20425;-76
2022/01/07 10:09:14;;;;;;;13.63;6.43;;;;;;;7.71;47.25;101307.44;5053917;28;20048;-77
2022/01/07 10:12:02;;;;;;;13.70;6.15;;;;;;;7.92;47.58;101305.41;5050955;28;20052;-77
2022/01/07 10:15:10;;;;;;;9.52;6.45;;;;;;;7.89;50.22;101300.53;5055669;28;20052;-79
2022/01/07 10:18:00;;;;;;;13.90;6.60;;;;;;;7.41;48.81;101294.91;5054624;28;20552;-79
2022/01/07 10:20:47;;;;;;;11.85;5.57;;;;;;;7.71;48.19;101294.72;5065074;28;20043;-79
2022/01/07 10:23:32;;;;;;;13.48;7.45;;;;;;;7.07;49.95;101283.19;5071642;28;20290;-79
2022/01/07 10:26:18;;;;;;;15.52;5.85;;;;;;;6.98;49.25;101285.66;5071025;28;20040;-81
2022/01/07 10:29:27;;;;;;;18.50;7.93;;;;;;;7.03;49.18;101274.00;5080842;28;20523;-79
2022/01/07 10:32:27;;;;;;;21.38;9.43;;;;;;;8.79;47.48;101276.38;5074758;28;20052;-80
2022/01/07 10:35:14;;;;;;;20.17;9.30;;;;;;;8.95;46.48;101258.81;5097011;28;20047;-80
2022/01/07 10:38:02;;;;;;;20.30;8.25;;;;;;;10.04;44.65;101259.34;5092581;28;20055;-81
2022/01/07 10:40:49;;;;;;;22.90;7.47;;;;;;;9.17;48.91;101260.97;5086971;28;20055;-80
2022/01/07 10:43:36;;;;;;;18.55;9.70;;;;;;;9.86;42.99;101246.59;5099787;28;20051;-79
2022/01/07 10:46:31;;;;;;;20.88;9.65;;;;;;;8.21;47.78;101241.22;5097741;28;20039;-80
2022/01/07 10:49:16;;;;;;;15.90;7.65;;;;;;;8.52;45.52;101237.13;5081396;28;20048;-77
2022/01/07 10:52:00;;;;;;;11.93;5.63;;;;;;;8.54;44.28;101228.69;5071949;28;20052;-77
2022/01/07 10:54:44;;;;;;;17.80;7.43;;;;;;;8.46;44.85;101232.84;5073383;28;20409;-76
2022/01/07 10:57:44;;;;;;;12.23;7.00;;;;;;;8.68;43.74;101226.91;5066803;28;20059;-76
2022/01/07 11:00:29;;;;;;;23.48;8.57;;;;;;;8.71;44.39;101209.25;5073415;28;20044;-76
2022/01/07 11:03:14;;;;;;;17.10;8.13;;;;;;;8.69;44.06;101212.22;5078835;28;20339;-77
2022/01/07 11:06:01;;;;;;;10.98;5.35;;;;;;;8.78;44.58;101207.00;5074375;28;20404;-76
2022/01/07 11:08:51;;;;;;;12.35;6.35;;;;;;;9.13;43.96;101201.06;5069479;28;20056;-77
2022/01/07 11:11:49;;;;;;;15.77;6.82;;;;;;;9.03;43.39;101195.78;5064282;28;20056;-76
2022/01/07 11:14:37;;;;;;;11.05;6.07;;;;;;;9.17;43.25;101196.66;5074648;28;20055;-76
2022/01/07 11:17:21;;;;;;;14.70;7.20;;;;;;;9.13;44.03;101192.13;5074157;28;20047;-76
2022/01/07 11:20:07;;;;;;;11.90;6.30;;;;;;;8.91;43.07;101198.94;5089472;28;20059;-76
2022/01/07 11:22:52;;;;;;;15.65;7.63;;;;;;;9.20;43.01;101196.06;5072306;28;20499;-75
2022/01/07 11:25:37;;;;;;;23.27;9.80;;;;;;;9.33;42.49;101199.97;5077160;28;20067;-76
2022/01/07 11:28:22;;;;;;;11.55;7.50;;;;;;;9.38;42.55;101197.97;5076700;28;20094;-76
2022/01/07 11:31:14;;;;;;;19.00;8.18;;;;;;;9.36;42.15;101188.50;5077265;28;20063;-77
2022/01/07 11:34:23;;;;;;;13.20;7.13;;;;;;;9.52;40.51;101186.34;5076279;28;20051;-76
2022/01/07 11:37:37;;;;;;;9.73;5.40;;;;;;;10.05;38.55;101187.63;5073905;28;20059;-77
2022/01/07 11:40:28;;;;;;;6.22;2.88;;;;;;;10.08;37.32;101178.84;5077051;28;20055;-76
2022/01/07 11:43:13;;;;;;;4.57;2.20;;;;;;;10.40;35.61;101174.47;5074383;28;20059;-77
2022/01/07 11:46:17;;;;;;;2.83;1.70;;;;;;;10.19;33.95;101166.72;5078862;28;20738;-77
2022/01/07 11:49:02;;;;;;;7.45;3.17;;;;;;;9.49;36.17;101162.53;5075937;28;20508;-77
2022/01/07 11:51:47;;;;;;;29.10;17.52;;;;;;;9.25;38.21;101158.00;5073621;28;20059;-76
2022/01/07 11:54:32;;;;;;;6.18;3.67;;;;;;;9.36;40.51;101151.31;5077170;28;20063;-76
2022/01/07 11:57:17;;;;;;;4.90;3.35;;;;;;;9.15;40.71;101147.31;5075845;28;20051;-76
2022/01/07 12:00:02;;;;;;;6.13;3.70;;;;;;;9.23;41.54;101135.81;5073959;28;20089;-76
2022/01/07 12:03:01;;;;;;;3.70;2.45;;;;;;;8.83;42.38;101136.41;5073513;28;20055;-76
2022/01/07 12:05:46;;;;;;;5.32;2.85;;;;;;;8.55;42.25;101130.00;5075617;28;20527;-77
2022/01/07 12:08:41;;;;;;;7.97;2.25;;;;;;;8.63;41.35;101126.66;5071088;28;20043;-76
2022/01/07 12:11:40;;;;;;;4.72;2.85;;;;;;;8.74;41.55;101117.28;5079888;28;20043;-77
2022/01/07 12:14:34;;;;;;;6.38;3.28;;;;;;;8.97;41.08;101123.72;5072246;28;20044;-76
2022/01/07 12:17:21;;;;;;;6.28;2.83;;;;;;;9.32;39.27;101112.31;5075354;28;20047;-76
2022/01/07 12:20:46;;;;;;;5.20;2.92;;;;;;;9.51;38.41;101111.44;5078944;28;20071;-76
2022/01/07 12:23:30;;;;;;;4.32;2.97;;;;;;;9.48;38.49;101107.44;5069240;28;20043;-76
2022/01/07 12:26:24;;;;;;;4.85;2.72;;;;;;;9.68;40.64;101095.41;5069447;28;20055;-76
2022/01/07 12:29:30;;;;;;;8.02;2.83;;;;;;;9.63;39.37;101090.88;5074969;28;20048;-76
2022/01/07 12:32:18;;;;;;;6.05;2.90;;;;;;;9.73;38.66;101092.59;5084696;28;20413;-76
2022/01/07 12:35:05;;;;;;;7.90;3.40;;;;;;;9.64;39.74;101086.25;5073971;28;20044;-76
2022/01/07 12:37:50;;;;;;;4.03;2.58;;;;;;;10.22;36.88;101090.00;5074149;28;20056;-76
2022/01/07 12:40:34;;;;;;;3.42;2.15;;;;;;;10.64;36.53;101088.84;5076524;28;20051;-77
2022/01/07 12:43:22;;;;;;;4.20;2.10;;;;;;;10.91;35.59;101077.06;5073712;28;20051;-77
2022/01/07 12:46:06;;;;;;;3.92;2.20;;;;;;;10.78;36.03;101075.19;5072752;28;20051;-77
2022/01/07 12:48:53;;;;;;;3.33;1.80;;;;;;;10.87;36.37;101076.06;5083813;28;20051;-77
2022/01/07 12:51:37;;;;;;;4.88;2.97;;;;;;;10.77;34.86;101070.06;5087797;28;20047;-77
2022/01/07 12:54:22;;;;;;;6.97;2.92;;;;;;;11.35;34.92;101064.53;5067695;28;20051;-77
2022/01/07 12:57:06;;;;;;;4.97;2.80;;;;;;;11.61;34.42;101067.41;5093728;28;20059;-78
2022/01/07 13:00:05;;;;;;;5.57;2.97;;;;;;;12.28;33.12;101065.28;5090758;28;20523;-77
2022/01/07 13:02:55;;;;;;;5.88;3.20;;;;;;;12.52;32.70;101065.63;5077326;28;20678;-77
2022/01/07 13:05:42;;;;;;;4.70;2.78;;;;;;;12.40;33.10;101070.88;5048124;28;20067;-77
2022/01/07 13:08:35;;;;;;;5.55;2.88;;;;;;;12.10;33.69;101061.69;5055032;28;20047;-77
2022/01/07 13:11:20;;;;;;;7.43;2.70;;;;;;;11.33;35.01;101055.88;5057548;28;20048;-77
2022/01/07 13:14:09;;;;;;;3.30;2.30;;;;;;;11.27;35.23;101063.41;5055303;28;20056;-77
2022/01/07 13:16:57;;;;;;;6.47;3.25;;;;;;;10.93;35.57;101053.06;5053695;28;20048;-77
2022/01/07 13:19:45;;;;;;;6.25;3.28;;;;;;;10.99;36.06;101051.81;5057652;28;20048;-77
2022/01/07 13:22:31;;;;;;;7.93;3.83;;;;;;;10.67;36.69;101049.31;5055833;28;20053;-78
2022/01/07 13:25:15;;;;;;;6.05;3.90;;;;;;;10.65;37.40;101041.50;5052331;28;20064;-76
2022/01/07 13:28:00;;;;;;;5.32;3.25;;;;;;;10.40;37.54;101039.34;5054402;28;20425;-79
2022/01/07 13:30:46;;;;;;;6.93;2.63;;;;;;;10.23;38.24;101031.03;5059291;28;20047;-79
2022/01/07 13:33:31;;;;;;;7.38;3.78;;;;;;;9.80;38.80;101035.97;5068135;28;20417;-77
2022/01/07 13:36:16;;;;;;;6.80;3.88;;;;;;;9.92;38.56;101030.03;5072694;28;20138;-78
2022/01/07 13:39:01;;;;;;;6.93;2.85;;;;;;;10.11;38.44;101042.38;5071455;28;20520;-78
2022/01/07 13:42:01;;;;;;;10.45;4.13;;;;;;;9.86;39.36;101038.28;5070817;28;20064;-77
2022/01/07 13:44:52;;;;;;;6.35;3.67;;;;;;;9.47;38.92;101040.66;5066320;28;20067;-77
2022/01/07 13:47:37;;;;;;;5.60;3.53;;;;;;;9.25;40.33;101027.75;5067361;28;20040;-77
2022/01/07 13:50:28;;;;;;;6.50;2.85;;;;;;;8.99;39.76;101037.44;5071937;28;20056;-77
2022/01/07 13:53:19;;;;;;;7.80;3.90;;;;;;;8.74;41.07;101037.84;5075881;28;20409;-77
2022/01/07 13:56:09;;;;;;;7.78;3.55;;;;;;;8.45;41.68;101027.16;5072076;28;20055;-77
2022/01/07 13:59:02;;;;;;;6.88;3.92;;;;;;;8.64;40.87;101029.84;5071437;28;20067;-77